sensor_id;sensor_type;location;lat;lon;timestamp;temperature;humidity
18287;DHT22;9269;50.838;12.094;2024-02-15T00:01:44;12.50;73.20
18287;DHT22;9269;50.838;12.094;2024-02-15T00:04:14;12.50;73.30
18287;DHT22;9269;50.838;12.094;2024-02-15T00:06:47;12.50;73.40
18287;DHT22;9269;50.838;12.094;2024-02-15T00:09:17;12.60;73.30
18287;DHT22;9269;50.838;12.094;2024-02-15T00:11:47;12.40;73.30
18287;DHT22;9269;50.838;12.094;2024-02-15T00:14:16;12.50;73.40
18287;DHT22;9269;50.838;12.094;2024-02-15T00:16:47;12.50;73.40
18287;DHT22;9269;50.838;12.094;2024-02-15T00:22:44;12.50;73.30
18287;DHT22;9269;50.838;12.094;2024-02-15T00:25:15;12.60;73.40
18287;DHT22;9269;50.838;12.094;2024-02-15T00:27:44;12.50;73.50
18287;DHT22;9269;50.838;12.094;2024-02-15T00:30:14;12.50;73.50
18287;DHT22;9269;50.838;12.094;2024-02-15T00:32:45;12.50;73.30
18287;DHT22;9269;50.838;12.094;2024-02-15T00:35:15;12.50;73.50
18287;DHT22;9269;50.838;12.094;2024-02-15T00:37:47;12.50;73.40
18287;DHT22;9269;50.838;12.094;2024-02-15T00:40:19;12.50;73.50
18287;DHT22;9269;50.838;12.094;2024-02-15T00:42:48;12.60;73.50
18287;DHT22;9269;50.838;12.094;2024-02-15T00:45:17;12.50;73.50
18287;DHT22;9269;50.838;12.094;2024-02-15T00:47:46;12.50;73.50
18287;DHT22;9269;50.838;12.094;2024-02-15T00:50:15;12.60;73.40
18287;DHT22;9269;50.838;12.094;2024-02-15T00:52:46;12.60;73.50
18287;DHT22;9269;50.838;12.094;2024-02-15T00:55:15;12.60;73.60
18287;DHT22;9269;50.838;12.094;2024-02-15T00:57:45;12.50;73.50
18287;DHT22;9269;50.838;12.094;2024-02-15T01:00:15;12.50;73.50
18287;DHT22;9269;50.838;12.094;2024-02-15T01:02:45;12.60;73.50
18287;DHT22;9269;50.838;12.094;2024-02-15T01:05:15;12.60;73.40
18287;DHT22;9269;50.838;12.094;2024-02-15T01:07:46;12.50;73.50
18287;DHT22;9269;50.838;12.094;2024-02-15T01:10:19;12.60;73.40
18287;DHT22;9269;50.838;12.094;2024-02-15T01:12:49;12.60;73.40
18287;DHT22;9269;50.838;12.094;2024-02-15T01:15:19;12.50;73.50
18287;DHT22;9269;50.838;12.094;2024-02-15T01:17:49;12.50;73.40
18287;DHT22;9269;50.838;12.094;2024-02-15T01:20:20;12.50;73.60
18287;DHT22;9269;50.838;12.094;2024-02-15T01:22:51;12.50;73.50
18287;DHT22;9269;50.838;12.094;2024-02-15T01:25:20;12.50;73.50
18287;DHT22;9269;50.838;12.094;2024-02-15T01:27:48;12.50;73.50
18287;DHT22;9269;50.838;12.094;2024-02-15T01:30:19;12.60;73.50
18287;DHT22;9269;50.838;12.094;2024-02-15T01:32:49;12.60;73.50
18287;DHT22;9269;50.838;12.094;2024-02-15T01:35:18;12.60;73.50
18287;DHT22;9269;50.838;12.094;2024-02-15T01:37:47;12.60;73.50
18287;DHT22;9269;50.838;12.094;2024-02-15T01:40:18;12.50;73.50
18287;DHT22;9269;50.838;12.094;2024-02-15T01:42:47;12.60;73.70
18287;DHT22;9269;50.838;12.094;2024-02-15T01:45:17;12.50;73.80
18287;DHT22;9269;50.838;12.094;2024-02-15T01:47:49;12.60;73.50
18287;DHT22;9269;50.838;12.094;2024-02-15T01:50:19;12.60;73.70
18287;DHT22;9269;50.838;12.094;2024-02-15T01:52:52;12.60;73.70
18287;DHT22;9269;50.838;12.094;2024-02-15T01:55:27;12.60;73.60
18287;DHT22;9269;50.838;12.094;2024-02-15T01:57:55;12.70;72.40
18287;DHT22;9269;50.838;12.094;2024-02-15T02:00:25;12.60;73.70
18287;DHT22;9269;50.838;12.094;2024-02-15T02:02:56;12.60;73.80
18287;DHT22;9269;50.838;12.094;2024-02-15T02:05:31;12.70;73.70
18287;DHT22;9269;50.838;12.094;2024-02-15T02:08:00;12.70;72.40
18287;DHT22;9269;50.838;12.094;2024-02-15T02:10:36;12.80;72.60
18287;DHT22;9269;50.838;12.094;2024-02-15T02:13:06;12.70;72.40
18287;DHT22;9269;50.838;12.094;2024-02-15T02:15:35;12.70;72.40
18287;DHT22;9269;50.838;12.094;2024-02-15T02:18:06;12.70;72.50
18287;DHT22;9269;50.838;12.094;2024-02-15T02:20:38;12.70;73.70
18287;DHT22;9269;50.838;12.094;2024-02-15T02:23:13;12.70;72.60
18287;DHT22;9269;50.838;12.094;2024-02-15T02:25:45;12.70;72.40
18287;DHT22;9269;50.838;12.094;2024-02-15T02:28:17;12.80;72.40
18287;DHT22;9269;50.838;12.094;2024-02-15T02:30:47;12.70;73.80
18287;DHT22;9269;50.838;12.094;2024-02-15T02:33:17;12.70;73.70
18287;DHT22;9269;50.838;12.094;2024-02-15T02:35:47;12.70;73.70
18287;DHT22;9269;50.838;12.094;2024-02-15T02:40:59;12.70;72.50
18287;DHT22;9269;50.838;12.094;2024-02-15T02:43:28;12.70;72.40
18287;DHT22;9269;50.838;12.094;2024-02-15T02:45:59;12.70;72.60
18287;DHT22;9269;50.838;12.094;2024-02-15T02:48:32;12.70;72.60
18287;DHT22;9269;50.838;12.094;2024-02-15T02:51:01;12.60;73.60
18287;DHT22;9269;50.838;12.094;2024-02-15T02:53:29;12.70;72.40
18287;DHT22;9269;50.838;12.094;2024-02-15T02:56:01;12.70;73.70
18287;DHT22;9269;50.838;12.094;2024-02-15T02:58:31;12.70;73.70
18287;DHT22;9269;50.838;12.094;2024-02-15T03:01:01;12.70;72.60
18287;DHT22;9269;50.838;12.094;2024-02-15T03:03:30;12.70;72.40
18287;DHT22;9269;50.838;12.094;2024-02-15T03:06:00;12.70;72.60
18287;DHT22;9269;50.838;12.094;2024-02-15T03:08:30;12.70;72.50
18287;DHT22;9269;50.838;12.094;2024-02-15T03:11:00;12.70;73.80
18287;DHT22;9269;50.838;12.094;2024-02-15T03:13:29;12.80;72.70
18287;DHT22;9269;50.838;12.094;2024-02-15T03:15:57;12.70;72.60
18287;DHT22;9269;50.838;12.094;2024-02-15T03:18:27;12.70;72.60
18287;DHT22;9269;50.838;12.094;2024-02-15T03:20:57;12.80;72.60
18287;DHT22;9269;50.838;12.094;2024-02-15T03:23:25;12.80;72.60
18287;DHT22;9269;50.838;12.094;2024-02-15T03:25:54;12.70;73.90
18287;DHT22;9269;50.838;12.094;2024-02-15T03:28:24;12.80;72.50
18287;DHT22;9269;50.838;12.094;2024-02-15T03:30:55;12.80;72.60
18287;DHT22;9269;50.838;12.094;2024-02-15T03:33:24;12.70;72.60
18287;DHT22;9269;50.838;12.094;2024-02-15T03:35:57;12.80;72.70
18287;DHT22;9269;50.838;12.094;2024-02-15T03:38:27;12.70;72.70
18287;DHT22;9269;50.838;12.094;2024-02-15T03:40:58;12.70;72.70
18287;DHT22;9269;50.838;12.094;2024-02-15T03:43:30;12.60;73.80
18287;DHT22;9269;50.838;12.094;2024-02-15T03:45:59;12.70;72.70
18287;DHT22;9269;50.838;12.094;2024-02-15T03:48:28;12.70;72.70
18287;DHT22;9269;50.838;12.094;2024-02-15T03:50:58;12.60;74.00
18287;DHT22;9269;50.838;12.094;2024-02-15T03:53:29;12.60;74.10
18287;DHT22;9269;50.838;12.094;2024-02-15T03:55:59;12.60;74.10
18287;DHT22;9269;50.838;12.094;2024-02-15T03:58:30;12.60;74.00
18287;DHT22;9269;50.838;12.094;2024-02-15T04:01:00;12.70;74.00
18287;DHT22;9269;50.838;12.094;2024-02-15T04:03:32;12.50;73.80
18287;DHT22;9269;50.838;12.094;2024-02-15T04:06:04;12.60;74.00
18287;DHT22;9269;50.838;12.094;2024-02-15T04:08:34;12.70;72.80
18287;DHT22;9269;50.838;12.094;2024-02-15T04:11:04;12.60;74.00
18287;DHT22;9269;50.838;12.094;2024-02-15T04:13:36;12.60;74.00
18287;DHT22;9269;50.838;12.094;2024-02-15T04:16:07;12.60;74.00
18287;DHT22;9269;50.838;12.094;2024-02-15T04:18:36;12.60;74.00
18287;DHT22;9269;50.838;12.094;2024-02-15T04:21:05;12.70;73.90
18287;DHT22;9269;50.838;12.094;2024-02-15T04:23:37;12.60;74.00
18287;DHT22;9269;50.838;12.094;2024-02-15T04:26:08;12.70;72.80
18287;DHT22;9269;50.838;12.094;2024-02-15T04:28:40;12.60;74.00
18287;DHT22;9269;50.838;12.094;2024-02-15T04:31:09;12.60;74.20
18287;DHT22;9269;50.838;12.094;2024-02-15T04:33:41;12.60;74.20
18287;DHT22;9269;50.838;12.094;2024-02-15T04:36:10;12.60;74.10
18287;DHT22;9269;50.838;12.094;2024-02-15T04:38:40;12.60;74.10
18287;DHT22;9269;50.838;12.094;2024-02-15T04:41:09;12.60;74.10
18287;DHT22;9269;50.838;12.094;2024-02-15T04:43:40;12.60;74.10
18287;DHT22;9269;50.838;12.094;2024-02-15T04:46:13;12.60;74.10
18287;DHT22;9269;50.838;12.094;2024-02-15T04:48:43;12.70;72.80
18287;DHT22;9269;50.838;12.094;2024-02-15T04:51:12;12.60;74.10
18287;DHT22;9269;50.838;12.094;2024-02-15T04:53:44;12.60;74.30
18287;DHT22;9269;50.838;12.094;2024-02-15T04:56:15;12.60;74.30
18287;DHT22;9269;50.838;12.094;2024-02-15T04:58:46;12.60;74.20
18287;DHT22;9269;50.838;12.094;2024-02-15T05:01:17;12.60;74.20
18287;DHT22;9269;50.838;12.094;2024-02-15T05:03:45;12.60;74.20
18287;DHT22;9269;50.838;12.094;2024-02-15T05:06:14;12.60;74.10
18287;DHT22;9269;50.838;12.094;2024-02-15T05:08:42;12.60;74.30
18287;DHT22;9269;50.838;12.094;2024-02-15T05:11:11;12.60;74.30
18287;DHT22;9269;50.838;12.094;2024-02-15T05:13:47;12.60;74.40
18287;DHT22;9269;50.838;12.094;2024-02-15T05:16:18;12.70;74.30
18287;DHT22;9269;50.838;12.094;2024-02-15T05:18:47;12.70;74.20
18287;DHT22;9269;50.838;12.094;2024-02-15T05:21:17;12.70;73.00
18287;DHT22;9269;50.838;12.094;2024-02-15T05:23:47;12.70;73.20
18287;DHT22;9269;50.838;12.094;2024-02-15T05:26:17;12.70;73.10
18287;DHT22;9269;50.838;12.094;2024-02-15T05:28:53;12.80;73.00
18287;DHT22;9269;50.838;12.094;2024-02-15T05:31:21;12.70;73.10
18287;DHT22;9269;50.838;12.094;2024-02-15T05:33:54;12.80;73.10
18287;DHT22;9269;50.838;12.094;2024-02-15T05:36:23;12.80;73.30
18287;DHT22;9269;50.838;12.094;2024-02-15T05:38:54;12.80;73.10
18287;DHT22;9269;50.838;12.094;2024-02-15T05:41:23;12.60;74.40
18287;DHT22;9269;50.838;12.094;2024-02-15T05:43:54;12.80;73.20
18287;DHT22;9269;50.838;12.094;2024-02-15T05:46:25;12.70;73.10
18287;DHT22;9269;50.838;12.094;2024-02-15T05:48:56;12.80;73.30
18287;DHT22;9269;50.838;12.094;2024-02-15T05:51:25;12.70;73.30
18287;DHT22;9269;50.838;12.094;2024-02-15T05:53:55;12.70;73.30
18287;DHT22;9269;50.838;12.094;2024-02-15T05:56:27;12.80;73.40
18287;DHT22;9269;50.838;12.094;2024-02-15T05:58:58;12.80;73.20
18287;DHT22;9269;50.838;12.094;2024-02-15T06:01:29;12.80;73.50
18287;DHT22;9269;50.838;12.094;2024-02-15T06:03:59;12.70;73.40
18287;DHT22;9269;50.838;12.094;2024-02-15T06:06:28;12.70;73.40
18287;DHT22;9269;50.838;12.094;2024-02-15T06:08:56;12.70;73.40
18287;DHT22;9269;50.838;12.094;2024-02-15T06:11:27;12.70;73.30
18287;DHT22;9269;50.838;12.094;2024-02-15T06:13:59;12.70;73.40
18287;DHT22;9269;50.838;12.094;2024-02-15T06:16:27;12.80;73.30
18287;DHT22;9269;50.838;12.094;2024-02-15T06:18:56;12.80;73.40
18287;DHT22;9269;50.838;12.094;2024-02-15T06:21:26;12.80;73.30
18287;DHT22;9269;50.838;12.094;2024-02-15T06:23:56;12.80;73.40
18287;DHT22;9269;50.838;12.094;2024-02-15T06:26:25;12.70;73.50
18287;DHT22;9269;50.838;12.094;2024-02-15T06:28:58;12.80;73.50
18287;DHT22;9269;50.838;12.094;2024-02-15T06:31:45;12.80;73.40
18287;DHT22;9269;50.838;12.094;2024-02-15T06:34:33;12.80;73.60
18287;DHT22;9269;50.838;12.094;2024-02-15T06:37:36;12.80;73.50
18287;DHT22;9269;50.838;12.094;2024-02-15T06:40:23;12.80;73.50
18287;DHT22;9269;50.838;12.094;2024-02-15T06:42:53;12.80;73.50
18287;DHT22;9269;50.838;12.094;2024-02-15T06:45:23;12.80;73.50
18287;DHT22;9269;50.838;12.094;2024-02-15T06:47:54;12.80;73.70
18287;DHT22;9269;50.838;12.094;2024-02-15T06:50:24;12.90;73.70
18287;DHT22;9269;50.838;12.094;2024-02-15T06:52:53;12.80;73.60
18287;DHT22;9269;50.838;12.094;2024-02-15T06:55:22;12.80;73.40
18287;DHT22;9269;50.838;12.094;2024-02-15T06:57:51;12.90;73.60
18287;DHT22;9269;50.838;12.094;2024-02-15T07:00:21;12.90;73.60
18287;DHT22;9269;50.838;12.094;2024-02-15T07:02:52;13.00;73.60
18287;DHT22;9269;50.838;12.094;2024-02-15T07:05:21;13.00;73.50
18287;DHT22;9269;50.838;12.094;2024-02-15T07:07:52;12.90;73.60
18287;DHT22;9269;50.838;12.094;2024-02-15T07:10:23;12.90;73.50
18287;DHT22;9269;50.838;12.094;2024-02-15T07:12:52;13.00;73.60
18287;DHT22;9269;50.838;12.094;2024-02-15T07:15:21;13.00;73.70
18287;DHT22;9269;50.838;12.094;2024-02-15T07:17:53;13.00;73.50
18287;DHT22;9269;50.838;12.094;2024-02-15T07:20:22;13.00;73.40
18287;DHT22;9269;50.838;12.094;2024-02-15T07:22:52;13.00;73.70
18287;DHT22;9269;50.838;12.094;2024-02-15T07:25:22;13.10;73.50
18287;DHT22;9269;50.838;12.094;2024-02-15T07:27:51;13.10;73.50
18287;DHT22;9269;50.838;12.094;2024-02-15T07:30:19;13.10;73.50
18287;DHT22;9269;50.838;12.094;2024-02-15T07:32:54;13.20;73.50
18287;DHT22;9269;50.838;12.094;2024-02-15T07:35:25;13.20;73.30
18287;DHT22;9269;50.838;12.094;2024-02-15T07:37:57;13.30;73.30
18287;DHT22;9269;50.838;12.094;2024-02-15T07:40:28;13.30;73.50
18287;DHT22;9269;50.838;12.094;2024-02-15T07:42:57;13.20;73.40
18287;DHT22;9269;50.838;12.094;2024-02-15T07:45:26;13.20;73.50
18287;DHT22;9269;50.838;12.094;2024-02-15T07:47:57;13.40;73.30
18287;DHT22;9269;50.838;12.094;2024-02-15T07:50:27;13.40;73.50
18287;DHT22;9269;50.838;12.094;2024-02-15T07:52:57;13.40;73.50
18287;DHT22;9269;50.838;12.094;2024-02-15T07:55:26;13.50;73.50
18287;DHT22;9269;50.838;12.094;2024-02-15T07:57:56;13.60;73.40
18287;DHT22;9269;50.838;12.094;2024-02-15T08:00:27;13.60;73.40
18287;DHT22;9269;50.838;12.094;2024-02-15T08:02:59;13.70;73.30
18287;DHT22;9269;50.838;12.094;2024-02-15T08:05:28;13.70;73.50
18287;DHT22;9269;50.838;12.094;2024-02-15T08:07:57;13.70;73.50
18287;DHT22;9269;50.838;12.094;2024-02-15T08:10:26;13.70;73.70
18287;DHT22;9269;50.838;12.094;2024-02-15T08:12:57;13.80;73.60
18287;DHT22;9269;50.838;12.094;2024-02-15T08:15:27;13.90;73.40
18287;DHT22;9269;50.838;12.094;2024-02-15T08:17:58;13.90;73.30
18287;DHT22;9269;50.838;12.094;2024-02-15T08:20:36;13.90;73.60
18287;DHT22;9269;50.838;12.094;2024-02-15T08:24:33;13.90;73.50
18287;DHT22;9269;50.838;12.094;2024-02-15T08:30:11;14.00;73.30
18287;DHT22;9269;50.838;12.094;2024-02-15T08:34:35;14.10;73.30
18287;DHT22;9269;50.838;12.094;2024-02-15T08:37:46;14.10;73.30
18287;DHT22;9269;50.838;12.094;2024-02-15T08:41:28;14.20;73.40
18287;DHT22;9269;50.838;12.094;2024-02-15T08:44:30;14.10;73.10
18287;DHT22;9269;50.838;12.094;2024-02-15T08:51:51;14.20;73.20
18287;DHT22;9269;50.838;12.094;2024-02-15T08:54:53;14.20;73.20
18287;DHT22;9269;50.838;12.094;2024-02-15T08:58:17;14.30;73.10
18287;DHT22;9269;50.838;12.094;2024-02-15T09:01:19;14.40;73.10
18287;DHT22;9269;50.838;12.094;2024-02-15T09:08:14;14.50;73.10
18287;DHT22;9269;50.838;12.094;2024-02-15T09:11:49;14.60;73.00
18287;DHT22;9269;50.838;12.094;2024-02-15T09:15:36;14.60;73.10
18287;DHT22;9269;50.838;12.094;2024-02-15T09:18:39;14.60;72.90
18287;DHT22;9269;50.838;12.094;2024-02-15T09:21:36;14.60;73.00
18287;DHT22;9269;50.838;12.094;2024-02-15T09:25:52;14.70;73.00
18287;DHT22;9269;50.838;12.094;2024-02-15T09:29:32;14.80;73.10
18287;DHT22;9269;50.838;12.094;2024-02-15T09:32:56;14.70;73.00
18287;DHT22;9269;50.838;12.094;2024-02-15T09:44:01;14.90;72.90
18287;DHT22;9269;50.838;12.094;2024-02-15T09:47:33;14.90;73.00
18287;DHT22;9269;50.838;12.094;2024-02-15T09:51:14;15.00;72.90
18287;DHT22;9269;50.838;12.094;2024-02-15T09:55:20;15.00;73.00
18287;DHT22;9269;50.838;12.094;2024-02-15T09:59:05;15.20;72.90
18287;DHT22;9269;50.838;12.094;2024-02-15T10:02:10;15.30;72.80
18287;DHT22;9269;50.838;12.094;2024-02-15T10:09:44;15.40;72.60
18287;DHT22;9269;50.838;12.094;2024-02-15T10:13:45;15.50;71.50
18287;DHT22;9269;50.838;12.094;2024-02-15T10:17:45;15.50;71.50
18287;DHT22;9269;50.838;12.094;2024-02-15T10:23:59;15.60;71.30
18287;DHT22;9269;50.838;12.094;2024-02-15T10:29:44;15.70;71.30
18287;DHT22;9269;50.838;12.094;2024-02-15T10:51:51;16.00;71.10
18287;DHT22;9269;50.838;12.094;2024-02-15T10:54:41;16.00;71.10
18287;DHT22;9269;50.838;12.094;2024-02-15T10:57:11;16.00;71.10
18287;DHT22;9269;50.838;12.094;2024-02-15T10:59:53;16.10;71.00
18287;DHT22;9269;50.838;12.094;2024-02-15T11:02:28;16.20;71.00
18287;DHT22;9269;50.838;12.094;2024-02-15T11:05:03;16.40;71.00
18287;DHT22;9269;50.838;12.094;2024-02-15T11:07:40;16.30;71.00
18287;DHT22;9269;50.838;12.094;2024-02-15T11:10:11;16.40;70.90
18287;DHT22;9269;50.838;12.094;2024-02-15T11:12:45;16.50;70.80
18287;DHT22;9269;50.838;12.094;2024-02-15T11:15:45;16.60;70.70
18287;DHT22;9269;50.838;12.094;2024-02-15T11:18:42;16.60;70.80
18287;DHT22;9269;50.838;12.094;2024-02-15T11:21:14;16.70;70.70
18287;DHT22;9269;50.838;12.094;2024-02-15T11:23:45;16.70;70.70
18287;DHT22;9269;50.838;12.094;2024-02-15T11:26:44;16.60;70.60
18287;DHT22;9269;50.838;12.094;2024-02-15T11:29:50;16.70;67.30
18287;DHT22;9269;50.838;12.094;2024-02-15T11:32:37;16.70;67.40
18287;DHT22;9269;50.838;12.094;2024-02-15T11:35:09;16.60;66.80
18287;DHT22;9269;50.838;12.094;2024-02-15T11:37:57;16.50;67.20
18287;DHT22;9269;50.838;12.094;2024-02-15T11:41:00;16.60;66.90
18287;DHT22;9269;50.838;12.094;2024-02-15T11:43:47;16.70;66.80
18287;DHT22;9269;50.838;12.094;2024-02-15T11:46:19;16.70;66.60
18287;DHT22;9269;50.838;12.094;2024-02-15T11:48:49;16.60;66.60
18287;DHT22;9269;50.838;12.094;2024-02-15T11:51:28;16.70;66.90
18287;DHT22;9269;50.838;12.094;2024-02-15T11:54:04;16.70;66.80
18287;DHT22;9269;50.838;12.094;2024-02-15T11:56:50;16.70;66.70
18287;DHT22;9269;50.838;12.094;2024-02-15T11:59:22;16.80;66.60
18287;DHT22;9269;50.838;12.094;2024-02-15T12:02:09;16.80;66.40
18287;DHT22;9269;50.838;12.094;2024-02-15T12:04:57;16.80;66.40
18287;DHT22;9269;50.838;12.094;2024-02-15T12:07:43;16.90;66.60
18287;DHT22;9269;50.838;12.094;2024-02-15T12:10:37;16.90;66.30
18287;DHT22;9269;50.838;12.094;2024-02-15T12:13:26;17.00;66.10
18287;DHT22;9269;50.838;12.094;2024-02-15T12:16:15;16.90;65.70
18287;DHT22;9269;50.838;12.094;2024-02-15T12:19:01;17.00;65.50
18287;DHT22;9269;50.838;12.094;2024-02-15T12:21:31;17.10;65.60
18287;DHT22;9269;50.838;12.094;2024-02-15T12:24:01;17.20;65.60
18287;DHT22;9269;50.838;12.094;2024-02-15T12:26:29;17.30;65.70
18287;DHT22;9269;50.838;12.094;2024-02-15T12:29:03;17.20;65.70
18287;DHT22;9269;50.838;12.094;2024-02-15T12:31:36;17.30;65.50
18287;DHT22;9269;50.838;12.094;2024-02-15T12:34:05;17.40;65.80
18287;DHT22;9269;50.838;12.094;2024-02-15T12:36:35;17.40;65.50
18287;DHT22;9269;50.838;12.094;2024-02-15T12:39:06;17.40;65.50
18287;DHT22;9269;50.838;12.094;2024-02-15T12:41:41;17.30;65.70
18287;DHT22;9269;50.838;12.094;2024-02-15T12:44:17;17.40;65.30
18287;DHT22;9269;50.838;12.094;2024-02-15T12:46:47;17.40;65.00
18287;DHT22;9269;50.838;12.094;2024-02-15T12:49:28;17.30;65.10
18287;DHT22;9269;50.838;12.094;2024-02-15T12:52:33;17.30;64.90
18287;DHT22;9269;50.838;12.094;2024-02-15T12:55:11;17.40;65.00
18287;DHT22;9269;50.838;12.094;2024-02-15T12:57:42;17.40;64.60
18287;DHT22;9269;50.838;12.094;2024-02-15T13:00:17;17.40;64.50
18287;DHT22;9269;50.838;12.094;2024-02-15T13:02:49;17.50;64.80
18287;DHT22;9269;50.838;12.094;2024-02-15T13:05:20;17.60;64.80
18287;DHT22;9269;50.838;12.094;2024-02-15T13:07:50;17.60;64.70
18287;DHT22;9269;50.838;12.094;2024-02-15T13:10:21;17.80;64.30
18287;DHT22;9269;50.838;12.094;2024-02-15T13:12:51;17.70;64.20
18287;DHT22;9269;50.838;12.094;2024-02-15T13:15:22;17.80;64.00
18287;DHT22;9269;50.838;12.094;2024-02-15T13:17:56;17.90;64.20
18287;DHT22;9269;50.838;12.094;2024-02-15T13:20:26;17.90;63.90
18287;DHT22;9269;50.838;12.094;2024-02-15T13:23:02;17.90;63.80
18287;DHT22;9269;50.838;12.094;2024-02-15T13:25:37;17.90;63.70
18287;DHT22;9269;50.838;12.094;2024-02-15T13:28:10;17.90;63.40
18287;DHT22;9269;50.838;12.094;2024-02-15T13:30:43;17.90;63.30
18287;DHT22;9269;50.838;12.094;2024-02-15T13:33:14;17.80;63.30
18287;DHT22;9269;50.838;12.094;2024-02-15T13:35:44;17.80;63.40
18287;DHT22;9269;50.838;12.094;2024-02-15T13:38:13;17.80;63.60
18287;DHT22;9269;50.838;12.094;2024-02-15T13:40:52;17.90;63.80
18287;DHT22;9269;50.838;12.094;2024-02-15T13:43:23;17.80;63.50
18287;DHT22;9269;50.838;12.094;2024-02-15T13:45:53;17.70;63.10
18287;DHT22;9269;50.838;12.094;2024-02-15T13:48:23;17.80;63.00
18287;DHT22;9269;50.838;12.094;2024-02-15T13:50:52;17.80;62.90
18287;DHT22;9269;50.838;12.094;2024-02-15T13:53:22;17.90;62.60
18287;DHT22;9269;50.838;12.094;2024-02-15T13:55:53;17.80;62.50
18287;DHT22;9269;50.838;12.094;2024-02-15T13:58:22;17.80;62.60
18287;DHT22;9269;50.838;12.094;2024-02-15T14:00:50;17.70;62.20
18287;DHT22;9269;50.838;12.094;2024-02-15T14:03:21;17.80;62.50
18287;DHT22;9269;50.838;12.094;2024-02-15T14:05:51;17.70;62.50
18287;DHT22;9269;50.838;12.094;2024-02-15T14:08:20;17.60;62.30
18287;DHT22;9269;50.838;12.094;2024-02-15T14:10:49;17.40;62.70
18287;DHT22;9269;50.838;12.094;2024-02-15T14:13:18;17.40;62.70
18287;DHT22;9269;50.838;12.094;2024-02-15T14:15:49;17.40;62.40
18287;DHT22;9269;50.838;12.094;2024-02-15T14:18:18;17.40;62.60
18287;DHT22;9269;50.838;12.094;2024-02-15T14:20:50;17.30;62.20
18287;DHT22;9269;50.838;12.094;2024-02-15T14:23:20;17.30;62.20
18287;DHT22;9269;50.838;12.094;2024-02-15T14:25:50;17.30;62.10
18287;DHT22;9269;50.838;12.094;2024-02-15T14:28:20;17.10;62.10
18287;DHT22;9269;50.838;12.094;2024-02-15T14:30:50;17.10;62.00
18287;DHT22;9269;50.838;12.094;2024-02-15T14:33:36;17.10;61.80
18287;DHT22;9269;50.838;12.094;2024-02-15T14:36:06;17.20;61.90
18287;DHT22;9269;50.838;12.094;2024-02-15T14:38:35;17.10;61.80
18287;DHT22;9269;50.838;12.094;2024-02-15T14:41:04;17.10;61.80
18287;DHT22;9269;50.838;12.094;2024-02-15T14:43:35;17.20;61.90
18287;DHT22;9269;50.838;12.094;2024-02-15T14:46:04;17.20;61.30
18287;DHT22;9269;50.838;12.094;2024-02-15T14:48:36;17.20;61.20
18287;DHT22;9269;50.838;12.094;2024-02-15T14:51:16;17.10;61.60
18287;DHT22;9269;50.838;12.094;2024-02-15T14:53:45;17.10;61.40
18287;DHT22;9269;50.838;12.094;2024-02-15T14:56:17;17.10;61.20
18287;DHT22;9269;50.838;12.094;2024-02-15T14:58:48;17.10;60.80
18287;DHT22;9269;50.838;12.094;2024-02-15T15:01:17;17.20;61.10
18287;DHT22;9269;50.838;12.094;2024-02-15T15:03:54;17.00;60.80
18287;DHT22;9269;50.838;12.094;2024-02-15T15:06:27;17.00;60.90
18287;DHT22;9269;50.838;12.094;2024-02-15T15:09:14;17.00;61.10
18287;DHT22;9269;50.838;12.094;2024-02-15T15:12:01;16.80;61.20
18287;DHT22;9269;50.838;12.094;2024-02-15T15:14:48;16.80;61.20
18287;DHT22;9269;50.838;12.094;2024-02-15T15:17:18;16.70;61.20
18287;DHT22;9269;50.838;12.094;2024-02-15T15:19:49;16.70;61.20
18287;DHT22;9269;50.838;12.094;2024-02-15T15:22:21;16.60;60.60
18287;DHT22;9269;50.838;12.094;2024-02-15T15:24:51;16.60;60.60
18287;DHT22;9269;50.838;12.094;2024-02-15T15:27:20;16.60;60.90
18287;DHT22;9269;50.838;12.094;2024-02-15T15:29:51;16.70;60.50
18287;DHT22;9269;50.838;12.094;2024-02-15T15:32:20;16.60;60.70
18287;DHT22;9269;50.838;12.094;2024-02-15T15:34:49;16.60;60.50
18287;DHT22;9269;50.838;12.094;2024-02-15T15:39:54;16.60;60.10
18287;DHT22;9269;50.838;12.094;2024-02-15T15:42:24;16.60;60.20
18287;DHT22;9269;50.838;12.094;2024-02-15T15:44:55;16.50;60.40
18287;DHT22;9269;50.838;12.094;2024-02-15T15:47:26;16.50;60.50
18287;DHT22;9269;50.838;12.094;2024-02-15T15:49:55;16.50;60.40
18287;DHT22;9269;50.838;12.094;2024-02-15T15:52:26;16.50;60.10
18287;DHT22;9269;50.838;12.094;2024-02-15T15:54:58;16.40;60.60
18287;DHT22;9269;50.838;12.094;2024-02-15T15:57:28;16.50;60.50
18287;DHT22;9269;50.838;12.094;2024-02-15T15:59:58;16.50;60.70
18287;DHT22;9269;50.838;12.094;2024-02-15T16:02:28;16.40;60.70
18287;DHT22;9269;50.838;12.094;2024-02-15T16:04:59;16.50;61.10
18287;DHT22;9269;50.838;12.094;2024-02-15T16:07:29;16.50;60.80
18287;DHT22;9269;50.838;12.094;2024-02-15T16:09:59;16.40;60.80
18287;DHT22;9269;50.838;12.094;2024-02-15T16:12:29;16.30;60.50
18287;DHT22;9269;50.838;12.094;2024-02-15T16:14:59;16.30;60.60
18287;DHT22;9269;50.838;12.094;2024-02-15T16:17:28;16.30;61.00
18287;DHT22;9269;50.838;12.094;2024-02-15T16:20:00;16.20;61.10
18287;DHT22;9269;50.838;12.094;2024-02-15T16:22:31;16.30;61.30
18287;DHT22;9269;50.838;12.094;2024-02-15T16:25:02;16.20;61.60
18287;DHT22;9269;50.838;12.094;2024-02-15T16:27:33;16.20;61.30
18287;DHT22;9269;50.838;12.094;2024-02-15T16:30:02;16.10;61.80
18287;DHT22;9269;50.838;12.094;2024-02-15T16:32:31;16.10;61.80
18287;DHT22;9269;50.838;12.094;2024-02-15T16:35:00;16.00;61.90
18287;DHT22;9269;50.838;12.094;2024-02-15T16:37:33;15.90;62.10
18287;DHT22;9269;50.838;12.094;2024-02-15T16:40:03;16.00;62.10
18287;DHT22;9269;50.838;12.094;2024-02-15T16:42:36;15.90;61.90
18287;DHT22;9269;50.838;12.094;2024-02-15T16:45:08;15.90;62.10
18287;DHT22;9269;50.838;12.094;2024-02-15T16:47:38;15.80;62.40
18287;DHT22;9269;50.838;12.094;2024-02-15T16:50:09;15.90;62.40
18287;DHT22;9269;50.838;12.094;2024-02-15T16:52:38;15.90;62.30
18287;DHT22;9269;50.838;12.094;2024-02-15T16:55:12;15.80;62.60
18287;DHT22;9269;50.838;12.094;2024-02-15T16:57:41;15.80;62.40
18287;DHT22;9269;50.838;12.094;2024-02-15T17:00:10;15.70;62.70
18287;DHT22;9269;50.838;12.094;2024-02-15T17:02:41;15.60;63.00
18287;DHT22;9269;50.838;12.094;2024-02-15T17:05:11;15.60;62.70
18287;DHT22;9269;50.838;12.094;2024-02-15T17:07:40;15.60;62.80
18287;DHT22;9269;50.838;12.094;2024-02-15T17:10:10;15.50;62.80
18287;DHT22;9269;50.838;12.094;2024-02-15T17:12:40;15.50;63.10
18287;DHT22;9269;50.838;12.094;2024-02-15T17:15:10;15.50;63.20
18287;DHT22;9269;50.838;12.094;2024-02-15T17:17:40;15.40;64.40
18287;DHT22;9269;50.838;12.094;2024-02-15T17:20:10;15.40;64.50
18287;DHT22;9269;50.838;12.094;2024-02-15T17:22:42;15.40;65.00
18287;DHT22;9269;50.838;12.094;2024-02-15T17:25:12;15.40;63.70